Kamimaru6 — JD2057 — position and weather

sailwx.info

Track history (hours):
 
Tides and Currents Weather Stations Pressure Air Temp Water Temp Dewpoint Dewpoint Depression Visibility Wind Speed Wind Dir Waves Ship Positions

Kamimaru6

Last reported at 2018-Jul-17 04:20 UTC. Time now 2018-Jul-17 11:41 UTC.
Position N 34°36' E 135°04'.

Length 58 m.

Type: Cargo ship. MMSI: 431501803.

Date/timePositionNaut miles runAvg speedWind from/ knotsBaromVisibWave heightAir tempDewpointWater temp
2018-Jul-17 04:20N 34°36' E 135°04'411.7
2018-Jul-17 03:59N 34°36' E 135°09'612.0
2018-Jul-17 03:28N 34°36' E 135°17'511.4
2018-Jul-17 02:59N 34°37' E 135°23'3 0.2
2018-Jul-16 11:31N 34°35' E 135°27'0 0.0
2018-Jul-16 11:28N 34°35' E 135°27'1 0.3
2018-Jul-16 08:35N 34°35' E 135°26'111.1
2018-Jul-16 08:30N 34°36' E 135°25'810.7
2018-Jul-16 07:47N 34°35' E 135°16'411.4
2018-Jul-16 07:28N 34°35' E 135°12'2512.8
2018-Jul-16 05:33N 34°31' E 134°42'511.3
2018-Jul-16 05:04N 34°29' E 134°36'  
2018-Jul-11 06:15N 34°36' E 135°04'310.9
2018-Jul-11 06:00N 34°36' E 135°07'611.8
2018-Jul-11 05:29N 34°37' E 135°14'611.4
2018-Jul-11 04:59N 34°38' E 135°21'5 0.9
2018-Jul-10 22:56N 34°40' E 135°27'0 0.0
2018-Jul-10 20:32N 34°40' E 135°27'0 0.0
2018-Jul-10 19:44N 34°40' E 135°27'0 0.0
2018-Jul-10 19:26N 34°40' E 135°27'0 0.0
2018-Jul-10 17:20N 34°40' E 135°27'3 6.9
2018-Jul-10 16:55N 34°39' E 135°24'810.9
2018-Jul-10 16:13N 34°35' E 135°16'211.2
2018-Jul-10 16:00N 34°35' E 135°13'14 0.5
2018-Jul-09 11:30N 34°37' E 134°57'611.6
2018-Jul-09 10:59N 34°36' E 135°04'611.1
2018-Jul-09 10:28N 34°37' E 135°11'511.2
2018-Jul-09 10:00N 34°38' E 135°17'611.3
2018-Jul-09 09:29N 34°39' E 135°24'3 0.2
2018-Jul-08 17:09N 34°40' E 135°27'0 0.2
2018-Jul-08 16:51N 34°40' E 135°27'3 7.2
2018-Jul-08 16:30N 34°39' E 135°25'610.5
2018-Jul-08 15:54N 34°36' E 135°18'411.1
2018-Jul-08 15:30N 34°35' E 135°13'611.6
2018-Jul-08 15:00N 34°35' E 135°06'  
Track history (hours):
 
Tides and Currents Weather Stations Pressure Air Temp Water Temp Dewpoint Dewpoint Depression Visibility Wind Speed Wind Dir Waves Ship Positions

Kamimaru6

Last reported at 2018-Jul-17 04:20 UTC. Time now 2018-Jul-17 11:41 UTC.
Position N 34°36' E 135°04'.

Length 58 m.

Type: Cargo ship. MMSI: 431501803.

Date/timePositionNaut miles runAvg speedWind from/ knotsBaromVisibWave heightAir tempDewpointWater temp
2018-Jul-17 04:20N 34°36' E 135°04'411.7
2018-Jul-17 03:59N 34°36' E 135°09'612.0
2018-Jul-17 03:28N 34°36' E 135°17'511.4
2018-Jul-17 02:59N 34°37' E 135°23'3 0.2
2018-Jul-16 11:31N 34°35' E 135°27'0 0.0
2018-Jul-16 11:28N 34°35' E 135°27'1 0.3
2018-Jul-16 08:35N 34°35' E 135°26'111.1
2018-Jul-16 08:30N 34°36' E 135°25'810.7
2018-Jul-16 07:47N 34°35' E 135°16'411.4
2018-Jul-16 07:28N 34°35' E 135°12'2512.8
2018-Jul-16 05:33N 34°31' E 134°42'511.3
2018-Jul-16 05:04N 34°29' E 134°36'  
2018-Jul-11 06:15N 34°36' E 135°04'310.9
2018-Jul-11 06:00N 34°36' E 135°07'611.8
2018-Jul-11 05:29N 34°37' E 135°14'611.4
2018-Jul-11 04:59N 34°38' E 135°21'5 0.9
2018-Jul-10 22:56N 34°40' E 135°27'0 0.0
2018-Jul-10 20:32N 34°40' E 135°27'0 0.0
2018-Jul-10 19:44N 34°40' E 135°27'0 0.0
2018-Jul-10 19:26N 34°40' E 135°27'0 0.0
2018-Jul-10 17:20N 34°40' E 135°27'3 6.9
2018-Jul-10 16:55N 34°39' E 135°24'810.9
2018-Jul-10 16:13N 34°35' E 135°16'211.2
2018-Jul-10 16:00N 34°35' E 135°13'14 0.5
2018-Jul-09 11:30N 34°37' E 134°57'611.6
2018-Jul-09 10:59N 34°36' E 135°04'611.1
2018-Jul-09 10:28N 34°37' E 135°11'511.2
2018-Jul-09 10:00N 34°38' E 135°17'611.3
2018-Jul-09 09:29N 34°39' E 135°24'3 0.2
2018-Jul-08 17:09N 34°40' E 135°27'0 0.2
2018-Jul-08 16:51N 34°40' E 135°27'3 7.2
2018-Jul-08 16:30N 34°39' E 135°25'610.5
2018-Jul-08 15:54N 34°36' E 135°18'411.1
2018-Jul-08 15:30N 34°35' E 135°13'611.6
2018-Jul-08 15:00N 34°35' E 135°06'  

Dump ship's entire track history